createdAt,value
2018-03-17T00:00:19.788Z,91.90
2018-03-17T00:02:53.891Z,91.90
2018-03-17T00:05:27.715Z,92.00
2018-03-17T00:08:01.605Z,91.90
2018-03-17T00:10:35.485Z,92.00
2018-03-17T00:13:10.235Z,91.90
2018-03-17T00:15:44.606Z,91.70
2018-03-17T00:18:18.847Z,92.20
2018-03-17T00:20:53.892Z,92.00
2018-03-17T00:23:28.002Z,92.00
2018-03-17T00:26:01.863Z,92.10
2018-03-17T00:28:35.692Z,92.10
2018-03-17T00:31:09.351Z,91.90
2018-03-17T00:33:44.010Z,92.80
2018-03-17T00:36:18.090Z,92.40
2018-03-17T00:38:51.986Z,92.60
2018-03-17T00:41:25.905Z,92.40
2018-03-17T00:43:59.606Z,92.00
2018-03-17T00:46:33.248Z,91.50
2018-03-17T00:49:06.877Z,92.00
2018-03-17T00:51:40.706Z,92.60
2018-03-17T00:54:14.466Z,92.20
2018-03-17T00:56:48.149Z,92.40
2018-03-17T00:59:22.613Z,92.10
2018-03-17T01:01:56.688Z,92.10
2018-03-17T01:04:31.116Z,92.10
2018-03-17T01:07:04.978Z,92.10
2018-03-17T01:09:38.714Z,91.60
2018-03-17T01:12:12.376Z,91.80
2018-03-17T01:14:46.316Z,91.60
2018-03-17T01:17:19.972Z,90.30
2018-03-17T01:19:53.614Z,90.90
2018-03-17T01:22:27.399Z,91.40
2018-03-17T01:25:01.389Z,91.20
2018-03-17T01:27:36.326Z,91.50
2018-03-17T01:30:10.875Z,91.50
2018-03-17T01:32:44.973Z,89.10
2018-03-17T01:35:18.637Z,89.50
2018-03-17T01:37:52.437Z,88.20
2018-03-17T01:40:26.355Z,86.80
2018-03-17T01:43:00.962Z,87.80
2018-03-17T01:45:34.953Z,87.70
2018-03-17T01:48:09.399Z,88.10
2018-03-17T01:50:43.562Z,87.50
2018-03-17T01:53:17.193Z,85.00
2018-03-17T01:55:50.984Z,85.60
2018-03-17T01:58:24.642Z,84.60
2018-03-17T02:00:59.041Z,84.80
2018-03-17T02:03:33.076Z,84.80
2018-03-17T02:06:07.568Z,86.40
2018-03-17T02:08:41.554Z,86.30
2018-03-17T02:11:15.900Z,83.50
2018-03-17T02:13:49.989Z,83.50
2018-03-17T02:16:23.985Z,81.90
2018-03-17T02:18:57.700Z,82.50
2018-03-17T02:21:31.486Z,82.60
2018-03-17T02:24:06.139Z,83.30
2018-03-17T02:26:40.143Z,83.10
2018-03-17T02:29:13.778Z,81.50
2018-03-17T02:31:47.465Z,83.10
2018-03-17T02:34:22.014Z,84.70
2018-03-17T02:36:56.971Z,84.40
2018-03-17T02:39:31.330Z,84.30
2018-03-17T02:42:05.500Z,85.80
2018-03-17T02:44:39.627Z,83.70
2018-03-17T02:47:13.533Z,86.50
2018-03-17T02:49:48.082Z,89.20
2018-03-17T02:52:21.952Z,89.00
2018-03-17T02:54:55.863Z,88.50
2018-03-17T02:57:30.260Z,88.10
2018-03-17T03:00:04.280Z,88.10
2018-03-17T03:02:37.985Z,88.50
2018-03-17T03:05:11.863Z,88.00
2018-03-17T03:07:45.611Z,87.60
2018-03-17T03:10:19.466Z,86.10
2018-03-17T03:12:53.452Z,86.00
2018-03-17T03:15:28.025Z,89.00
2018-03-17T03:18:02.131Z,89.00
2018-03-17T03:20:36.636Z,88.50
2018-03-17T03:23:10.728Z,88.00
2018-03-17T03:25:44.531Z,90.00
2018-03-17T03:28:18.325Z,88.70
2018-03-17T03:30:52.113Z,89.30
2018-03-17T03:33:26.626Z,89.80
2018-03-17T03:36:00.448Z,89.50
2018-03-17T03:38:34.915Z,86.80
2018-03-17T03:41:08.815Z,86.80
2018-03-17T03:43:43.281Z,86.30
2018-03-17T03:46:18.120Z,87.90
2018-03-17T03:48:52.294Z,86.20
2018-03-17T03:51:27.153Z,87.30
2018-03-17T03:54:01.656Z,85.90
2018-03-17T03:56:36.607Z,84.70
2018-03-17T03:59:11.408Z,87.10
2018-03-17T04:01:45.802Z,87.00
2018-03-17T04:04:19.602Z,88.00
2018-03-17T04:06:54.155Z,87.50
2018-03-17T04:09:28.019Z,84.00
2018-03-17T04:12:02.720Z,85.50
2018-03-17T04:14:36.634Z,84.80
2018-03-17T04:17:11.245Z,85.10
2018-03-17T04:19:44.980Z,85.00
2018-03-17T04:22:18.795Z,84.10
2018-03-17T04:24:53.393Z,85.10
2018-03-17T04:27:27.061Z,85.60
2018-03-17T04:30:00.920Z,86.20
2018-03-17T04:32:34.743Z,84.90
2018-03-17T04:35:08.404Z,85.70
2018-03-17T04:37:42.708Z,85.00
2018-03-17T04:40:16.786Z,85.70
2018-03-17T04:42:50.641Z,83.70
2018-03-17T04:45:24.927Z,84.60
2018-03-17T04:47:59.632Z,85.40
2018-03-17T04:50:33.608Z,85.40
2018-03-17T04:53:07.521Z,85.70
2018-03-17T04:55:41.141Z,85.00
2018-03-17T04:58:15.150Z,83.40
2018-03-17T05:00:49.402Z,84.00
2018-03-17T05:03:24.471Z,85.40
2018-03-17T05:05:58.946Z,84.60
2018-03-17T05:08:33.374Z,83.60
2018-03-17T05:11:07.221Z,82.80
2018-03-17T05:13:41.054Z,82.10
2018-03-17T05:16:15.630Z,81.80
2018-03-17T05:18:49.987Z,81.80
2018-03-17T05:21:23.765Z,83.10
2018-03-17T05:23:57.483Z,82.40
2018-03-17T05:26:31.882Z,80.40
2018-03-17T05:29:05.943Z,80.40
2018-03-17T05:31:39.754Z,81.70
2018-03-17T05:34:13.524Z,81.40
2018-03-17T05:36:47.412Z,81.00
2018-03-17T05:39:21.844Z,80.50
2018-03-17T05:41:55.849Z,80.40
2018-03-17T05:44:29.585Z,79.30
2018-03-17T05:47:03.362Z,78.40
2018-03-17T05:49:37.982Z,78.50
2018-03-17T05:52:11.999Z,78.10
2018-03-17T05:54:45.644Z,78.30
2018-03-17T05:57:19.428Z,76.70
2018-03-17T05:59:53.180Z,76.70
2018-03-17T06:02:27.927Z,75.90
2018-03-17T06:05:01.883Z,75.80
2018-03-17T06:07:36.355Z,76.30
2018-03-17T06:10:10.403Z,76.20
2018-03-17T06:12:44.533Z,76.50
2018-03-17T06:15:18.644Z,74.80
2018-03-17T06:17:53.063Z,75.50
2018-03-17T06:20:27.026Z,76.90
2018-03-17T06:23:00.817Z,77.30
2018-03-17T06:25:34.698Z,75.00
2018-03-17T06:28:08.543Z,75.70
2018-03-17T06:30:42.426Z,76.30
2018-03-17T06:33:16.954Z,74.90
2018-03-17T06:35:51.935Z,71.20
2018-03-17T06:38:26.494Z,71.80
2018-03-17T06:41:00.319Z,71.40
2018-03-17T06:43:33.954Z,71.50
2018-03-17T06:46:07.880Z,71.30
2018-03-17T06:48:41.568Z,71.80
2018-03-17T06:51:15.356Z,70.80
2018-03-17T06:53:49.110Z,70.00
2018-03-17T06:56:22.907Z,71.60
2018-03-17T06:58:57.550Z,71.40
2018-03-17T07:01:31.727Z,71.40
2018-03-17T07:04:05.517Z,71.00
2018-03-17T07:06:39.213Z,72.10
2018-03-17T07:09:13.742Z,72.30
2018-03-17T07:11:47.725Z,72.80
2018-03-17T07:14:22.348Z,73.70
2018-03-17T07:16:56.502Z,72.90
2018-03-17T07:19:30.236Z,73.50
2018-03-17T07:22:05.124Z,72.30
2018-03-17T07:24:39.568Z,69.80
2018-03-17T07:27:13.424Z,70.10
2018-03-17T07:29:47.713Z,69.80
2018-03-17T07:32:21.449Z,69.40
2018-03-17T07:34:55.333Z,69.40
2018-03-17T07:37:29.332Z,68.90
2018-03-17T07:40:03.063Z,67.70
2018-03-17T07:42:36.817Z,67.30
2018-03-17T07:45:10.622Z,67.90
2018-03-17T07:47:45.015Z,68.30
2018-03-17T07:50:18.771Z,68.80
2018-03-17T07:52:53.255Z,69.50
2018-03-17T07:55:27.301Z,66.20
2018-03-17T07:58:00.967Z,66.60
2018-03-17T08:00:34.613Z,68.30
2018-03-17T08:03:09.182Z,65.70
2018-03-17T08:05:43.889Z,67.00
2018-03-17T08:08:18.641Z,65.40
2018-03-17T08:10:52.650Z,65.10
2018-03-17T08:13:26.437Z,64.90
2018-03-17T08:16:00.887Z,61.40
2018-03-17T08:18:34.834Z,60.60
2018-03-17T08:21:08.554Z,59.80
2018-03-17T08:23:42.835Z,62.20
2018-03-17T08:26:16.846Z,60.60
2018-03-17T08:28:50.566Z,59.40
2018-03-17T08:31:25.090Z,59.70
2018-03-17T08:33:59.304Z,59.60
2018-03-17T08:36:33.333Z,56.80
2018-03-17T08:39:07.253Z,57.30
2018-03-17T08:41:42.139Z,55.20
2018-03-17T08:44:16.946Z,53.30
2018-03-17T08:46:51.659Z,54.30
2018-03-17T08:49:26.396Z,50.10
2018-03-17T08:52:00.549Z,50.10
2018-03-17T08:54:34.338Z,49.40
2018-03-17T08:57:08.199Z,50.40
2018-03-17T08:59:42.154Z,50.60
2018-03-17T09:02:16.808Z,49.90
2018-03-17T09:04:50.730Z,49.30
2018-03-17T09:07:24.550Z,51.50
2018-03-17T09:09:58.249Z,53.70
2018-03-17T09:12:32.649Z,51.20
2018-03-17T09:15:06.688Z,51.10
2018-03-17T09:17:42.014Z,50.80
2018-03-17T09:20:15.950Z,50.80
2018-03-17T09:22:50.410Z,53.00
2018-03-17T09:25:24.407Z,52.70
2018-03-17T09:27:59.310Z,53.40
2018-03-17T09:30:33.691Z,53.20
2018-03-17T09:33:07.465Z,50.80
2018-03-17T09:35:41.375Z,50.20
2018-03-17T09:38:15.734Z,50.60
2018-03-17T09:40:50.008Z,50.70
2018-03-17T09:43:23.640Z,51.30
2018-03-17T09:45:57.362Z,51.30
2018-03-17T09:48:31.473Z,51.10
2018-03-17T09:51:05.278Z,50.60
2018-03-17T09:53:39.750Z,50.40
2018-03-17T09:56:15.029Z,49.90
2018-03-17T09:58:48.998Z,51.00
2018-03-17T10:01:23.885Z,50.70
2018-03-17T10:03:57.530Z,50.00
2018-03-17T10:06:31.339Z,50.80
2018-03-17T10:09:05.161Z,49.70
2018-03-17T10:11:38.963Z,50.40
2018-03-17T10:14:12.585Z,50.50
2018-03-17T10:16:47.174Z,49.20
2018-03-17T10:19:21.755Z,46.20
2018-03-17T10:21:55.722Z,47.10
2018-03-17T10:24:30.309Z,47.70
2018-03-17T10:27:05.037Z,47.20
2018-03-17T10:29:38.886Z,46.80
2018-03-17T10:32:14.317Z,47.30
2018-03-17T10:34:48.512Z,46.90
2018-03-17T10:37:22.097Z,46.10
2018-03-17T10:39:55.992Z,48.50
2018-03-17T10:42:29.717Z,46.60
2018-03-17T10:45:03.648Z,44.80
2018-03-17T10:47:37.522Z,44.10
2018-03-17T10:50:11.962Z,47.00
2018-03-17T10:52:45.923Z,47.00
2018-03-17T10:55:20.566Z,46.00
2018-03-17T10:57:54.610Z,45.90
2018-03-17T11:00:28.638Z,48.10
2018-03-17T11:03:03.423Z,45.70
2018-03-17T11:05:38.576Z,42.80
2018-03-17T11:08:12.459Z,42.70
2018-03-17T11:10:46.314Z,44.20
2018-03-17T11:13:20.120Z,44.80
2018-03-17T11:15:54.037Z,40.60
2018-03-17T11:18:28.590Z,39.70
2018-03-17T11:21:02.724Z,39.70
2018-03-17T11:23:36.701Z,40.90
2018-03-17T11:26:11.137Z,40.40
2018-03-17T11:28:45.119Z,38.50
2018-03-17T11:31:18.769Z,39.70
2018-03-17T11:33:52.454Z,39.90
2018-03-17T11:36:26.953Z,40.10
2018-03-17T11:39:00.710Z,39.30
2018-03-17T11:41:35.103Z,43.20
2018-03-17T11:44:10.292Z,43.20
2018-03-17T11:46:43.942Z,41.20
2018-03-17T11:49:17.625Z,39.40
2018-03-17T11:51:52.059Z,38.30
2018-03-17T11:54:25.982Z,38.30
2018-03-17T11:56:59.731Z,38.00
2018-03-17T11:59:33.520Z,35.40
2018-03-17T12:02:07.356Z,33.60
2018-03-17T12:04:40.996Z,34.20
2018-03-17T12:07:15.345Z,34.30
2018-03-17T12:09:49.998Z,33.40
2018-03-17T12:12:24.894Z,33.70
2018-03-17T12:14:59.650Z,34.10
2018-03-17T12:17:33.926Z,33.60
2018-03-17T12:20:07.852Z,33.10
2018-03-17T12:22:42.457Z,32.40
2018-03-17T12:25:16.437Z,32.30
2018-03-17T12:27:51.029Z,32.20
2018-03-17T12:30:25.992Z,32.20
2018-03-17T12:33:00.628Z,35.50
2018-03-17T12:35:34.508Z,35.10
2018-03-17T12:38:09.059Z,32.40
2018-03-17T12:40:43.260Z,31.70
2018-03-17T12:43:17.005Z,32.20
2018-03-17T12:45:50.653Z,32.70
2018-03-17T12:48:24.444Z,33.70
2018-03-17T12:50:59.044Z,31.90
2018-03-17T12:53:33.002Z,31.90
2018-03-17T12:56:07.499Z,31.30
2018-03-17T12:58:41.322Z,31.70
2018-03-17T13:01:15.110Z,32.80
2018-03-17T13:03:49.794Z,31.70
2018-03-17T13:06:23.355Z,32.60
2018-03-17T13:08:57.054Z,33.20
2018-03-17T13:11:30.896Z,34.40
2018-03-17T13:14:04.657Z,31.50
2018-03-17T13:16:39.071Z,32.20
2018-03-17T13:19:24.863Z,31.50
2018-03-17T13:21:59.968Z,33.30
2018-03-17T13:24:34.401Z,33.30
2018-03-17T13:27:20.667Z,32.60
2018-03-17T13:29:54.409Z,32.40
2018-03-17T13:32:39.958Z,32.70
2018-03-17T13:35:14.587Z,33.30
2018-03-17T13:37:49.538Z,33.20
2018-03-17T13:40:29.361Z,33.10
2018-03-17T13:43:03.309Z,30.00
2018-03-17T13:45:37.127Z,31.00
2018-03-17T13:48:10.884Z,31.40
2018-03-17T13:50:44.741Z,32.30
2018-03-17T13:53:18.610Z,33.60
2018-03-17T13:55:53.255Z,34.70
2018-03-17T13:58:27.375Z,34.70
2018-03-17T14:01:01.865Z,31.70
2018-03-17T14:03:35.693Z,31.70
2018-03-17T14:06:10.428Z,33.00
2018-03-17T14:08:46.075Z,33.70
2018-03-17T14:11:20.525Z,33.60
2018-03-17T14:13:55.369Z,32.80
2018-03-17T14:16:29.046Z,32.80
2018-03-17T14:19:02.949Z,32.30
2018-03-17T14:21:36.597Z,32.70
2018-03-17T14:24:10.510Z,34.60
2018-03-17T14:26:45.121Z,34.70
2018-03-17T14:29:19.302Z,34.60
2018-03-17T14:31:53.209Z,33.60
2018-03-17T14:34:27.178Z,35.20
2018-03-17T14:37:00.905Z,33.70
2018-03-17T14:39:35.893Z,34.50
2018-03-17T14:42:09.982Z,34.50
2018-03-17T14:44:45.312Z,34.70
2018-03-17T14:47:19.397Z,34.70
2018-03-17T14:49:53.093Z,33.60
2018-03-17T14:52:26.977Z,34.20
2018-03-17T14:55:00.631Z,34.10
2018-03-17T14:57:34.635Z,34.60
2018-03-17T15:00:09.887Z,36.10
2018-03-17T15:02:44.703Z,36.50
2018-03-17T15:05:18.517Z,36.00
2018-03-17T15:07:52.430Z,36.50
2018-03-17T15:10:26.110Z,35.80
2018-03-17T15:13:00.842Z,35.80
2018-03-17T15:15:34.759Z,35.80
2018-03-17T15:18:09.137Z,35.30
2018-03-17T15:20:42.886Z,34.50
2018-03-17T15:23:17.288Z,35.20
2018-03-17T15:25:51.441Z,34.60
2018-03-17T15:28:25.995Z,36.10
2018-03-17T15:30:59.853Z,35.20
2018-03-17T15:33:34.453Z,35.90
2018-03-17T15:36:08.249Z,34.60
2018-03-17T15:38:41.970Z,34.90
2018-03-17T15:41:15.649Z,35.50
2018-03-17T15:43:49.809Z,36.00
2018-03-17T15:46:23.839Z,36.10
2018-03-17T15:48:57.680Z,36.50
2018-03-17T15:51:31.693Z,36.60
2018-03-17T15:54:06.426Z,35.70
2018-03-17T15:56:41.209Z,35.70
2018-03-17T15:59:15.391Z,35.50
2018-03-17T16:01:49.032Z,35.00
2018-03-17T16:04:23.677Z,36.20
2018-03-17T16:06:57.703Z,36.10
2018-03-17T16:09:32.290Z,36.50
2018-03-17T16:12:06.052Z,37.00
2018-03-17T16:14:40.447Z,37.90
2018-03-17T16:17:14.501Z,37.90
2018-03-17T16:19:48.106Z,38.60
2018-03-17T16:22:22.195Z,37.70
2018-03-17T16:24:57.381Z,37.10
2018-03-17T16:27:31.412Z,37.10
2018-03-17T16:30:05.812Z,37.80
2018-03-17T16:32:39.990Z,37.10
2018-03-17T16:35:13.691Z,37.70
2018-03-17T16:37:47.491Z,38.10
2018-03-17T16:40:22.221Z,36.00
2018-03-17T16:42:55.742Z,37.20
2018-03-17T16:45:29.645Z,37.60
2018-03-17T16:48:04.195Z,38.50
2018-03-17T16:50:38.225Z,38.30
2018-03-17T16:53:12.640Z,38.80
2018-03-17T16:55:47.245Z,38.00
2018-03-17T16:58:21.739Z,37.70
2018-03-17T17:00:56.722Z,38.00
2018-03-17T17:03:31.097Z,38.00
2018-03-17T17:06:05.653Z,38.40
2018-03-17T17:08:39.691Z,37.80
2018-03-17T17:11:13.650Z,38.80
2018-03-17T17:13:47.424Z,38.60
2018-03-17T17:16:21.436Z,38.80
2018-03-17T17:18:55.138Z,39.20
2018-03-17T17:21:29.536Z,39.30
2018-03-17T17:24:03.426Z,39.30
2018-03-17T17:26:37.871Z,39.70
2018-03-17T17:29:11.890Z,39.70
2018-03-17T17:31:46.611Z,39.40
2018-03-17T17:34:20.432Z,39.40
2018-03-17T17:36:55.200Z,39.30
2018-03-17T17:39:29.053Z,39.20
2018-03-17T17:42:02.739Z,39.30
2018-03-17T17:44:36.419Z,39.90
2018-03-17T17:47:10.254Z,40.00
2018-03-17T17:49:44.576Z,40.40
2018-03-17T17:52:19.276Z,40.50
2018-03-17T17:54:53.715Z,39.80
2018-03-17T17:57:29.167Z,39.40
2018-03-17T18:00:02.926Z,40.30
2018-03-17T18:02:36.585Z,39.80
2018-03-17T18:05:10.380Z,39.60
2018-03-17T18:07:45.181Z,40.60
2018-03-17T18:10:19.565Z,40.30
2018-03-17T18:12:53.646Z,40.30
2018-03-17T18:15:28.250Z,40.20
2018-03-17T18:18:02.145Z,40.00
2018-03-17T18:20:36.121Z,40.30
2018-03-17T18:23:10.667Z,40.90
2018-03-17T18:25:44.727Z,40.00
2018-03-17T18:28:19.349Z,40.20
2018-03-17T18:30:53.092Z,40.30
2018-03-17T18:33:27.566Z,41.30
2018-03-17T18:36:01.505Z,40.60
2018-03-17T18:38:35.973Z,40.70
2018-03-17T18:41:10.709Z,42.20
2018-03-17T18:43:44.711Z,41.80
2018-03-17T18:46:18.334Z,41.70
2018-03-17T18:48:52.879Z,41.90
2018-03-17T18:51:27.566Z,42.80
2018-03-17T18:54:02.105Z,42.80
2018-03-17T18:56:36.562Z,43.10
2018-03-17T18:59:10.206Z,43.50
2018-03-17T19:01:45.522Z,43.70
2018-03-17T19:04:19.656Z,43.60
2018-03-17T19:06:53.292Z,43.40
2018-03-17T19:09:27.786Z,43.80
2018-03-17T19:12:01.812Z,43.80
2018-03-17T19:14:35.535Z,44.10
2018-03-17T19:17:09.214Z,44.20
2018-03-17T19:19:43.535Z,44.50
2018-03-17T19:22:18.398Z,44.20
2018-03-17T19:24:53.240Z,43.80
2018-03-17T19:27:27.977Z,43.80
2018-03-17T19:30:03.023Z,44.60
2018-03-17T19:32:37.155Z,44.00
2018-03-17T19:35:10.775Z,43.00
2018-03-17T19:37:44.404Z,43.10
2018-03-17T19:40:18.504Z,43.40
2018-03-17T19:42:52.109Z,43.10
2018-03-17T19:45:26.849Z,43.20
2018-03-17T19:48:01.784Z,43.70
2018-03-17T19:50:36.770Z,43.40
2018-03-17T19:53:10.614Z,43.40
2018-03-17T19:55:44.423Z,43.40
2018-03-17T19:58:18.126Z,44.00
2018-03-17T20:00:52.527Z,42.80
2018-03-17T20:03:26.511Z,42.60
2018-03-17T20:06:00.393Z,43.20
2018-03-17T20:08:34.056Z,43.70
2018-03-17T20:11:07.700Z,43.10
2018-03-17T20:13:41.369Z,42.00
2018-03-17T20:16:15.281Z,41.90
2018-03-17T20:18:49.772Z,42.20
2018-03-17T20:21:24.815Z,41.90
2018-03-17T20:23:58.679Z,42.30
2018-03-17T20:26:32.381Z,41.10
2018-03-17T20:29:06.170Z,40.80
2018-03-17T20:31:40.340Z,41.30
2018-03-17T20:34:14.579Z,41.00
2018-03-17T20:36:48.835Z,41.70
2018-03-17T20:39:22.911Z,42.20
2018-03-17T20:41:56.811Z,41.60
2018-03-17T20:44:30.596Z,40.10
2018-03-17T20:47:04.265Z,40.50
2018-03-17T20:49:38.080Z,40.20
2018-03-17T20:52:11.759Z,40.70
2018-03-17T20:54:45.638Z,40.90
2018-03-17T20:57:19.482Z,41.40
2018-03-17T20:59:53.059Z,41.20
2018-03-17T21:02:26.763Z,40.00
2018-03-17T21:05:01.320Z,39.90
2018-03-17T21:07:35.156Z,40.40
2018-03-17T21:10:08.833Z,40.20
2018-03-17T21:12:43.410Z,40.20
2018-03-17T21:15:17.322Z,40.20
2018-03-17T21:17:51.119Z,40.70
2018-03-17T21:20:24.959Z,40.00
2018-03-17T21:22:59.456Z,40.60
2018-03-17T21:25:33.488Z,40.60
2018-03-17T21:28:08.014Z,40.20
2018-03-17T21:30:41.917Z,38.90
2018-03-17T21:33:15.784Z,39.40
2018-03-17T21:35:49.624Z,39.70
2018-03-17T21:38:23.414Z,39.80
2018-03-17T21:40:57.104Z,39.80
2018-03-17T21:43:31.891Z,39.90
2018-03-17T21:46:06.046Z,39.80
2018-03-17T21:48:40.101Z,39.30
2018-03-17T21:51:14.059Z,39.60
2018-03-17T21:53:47.770Z,39.60
2018-03-17T21:56:22.958Z,39.90
2018-03-17T21:58:57.553Z,39.30
2018-03-17T22:01:31.461Z,39.70
2018-03-17T22:04:05.235Z,40.00
2018-03-17T22:06:39.858Z,40.20
2018-03-17T22:09:13.795Z,39.50
2018-03-17T22:11:47.743Z,39.50
2018-03-17T22:14:21.474Z,40.80
2018-03-17T22:16:55.317Z,39.50
2018-03-17T22:19:28.986Z,40.00
2018-03-17T22:22:02.830Z,40.70
2018-03-17T22:24:36.537Z,41.10
2018-03-17T22:27:10.208Z,40.80
2018-03-17T22:29:44.057Z,39.70
2018-03-17T22:32:17.859Z,39.90
2018-03-17T22:34:51.565Z,40.30
2018-03-17T22:37:25.993Z,40.80
2018-03-17T22:40:00.773Z,41.10
2018-03-17T22:42:35.567Z,42.30
2018-03-17T22:45:09.755Z,41.70
2018-03-17T22:47:43.446Z,41.80
2018-03-17T22:50:18.155Z,41.60
2018-03-17T22:52:51.725Z,40.70
2018-03-17T22:55:26.562Z,41.50
2018-03-17T22:58:01.014Z,41.50
2018-03-17T23:00:36.018Z,41.70
2018-03-17T23:03:10.290Z,41.70
2018-03-17T23:05:43.978Z,41.20
2018-03-17T23:08:17.833Z,41.60
2018-03-17T23:10:51.640Z,41.20
2018-03-17T23:13:25.461Z,41.70
2018-03-17T23:16:00.084Z,42.30
2018-03-17T23:18:33.828Z,42.20
2018-03-17T23:21:08.310Z,42.40
2018-03-17T23:23:42.148Z,41.70
2018-03-17T23:26:15.938Z,41.50
2018-03-17T23:28:50.414Z,42.20
2018-03-17T23:31:25.382Z,42.80
2018-03-17T23:33:59.094Z,42.50
2018-03-17T23:36:33.705Z,42.70
2018-03-17T23:39:07.568Z,42.20
2018-03-17T23:41:41.198Z,42.00
2018-03-17T23:44:15.083Z,42.00
2018-03-17T23:46:49.411Z,42.80
2018-03-17T23:49:24.288Z,42.80
2018-03-17T23:51:58.868Z,43.10
2018-03-17T23:54:33.625Z,43.30
2018-03-17T23:57:08.369Z,43.20
2018-03-17T23:59:42.802Z,42.70
